sensor_id;sensor_type;location;lat;lon;timestamp;pressure;altitude;pressure_sealevel;temperature
80537;BMP280;69867;47.074;15.404;2024-02-15T00:00:53;98061.22;;;3.19
80537;BMP280;69867;47.074;15.404;2024-02-15T00:03:19;98060.44;;;3.23
80537;BMP280;69867;47.074;15.404;2024-02-15T00:05:45;98049.34;;;3.27
80537;BMP280;69867;47.074;15.404;2024-02-15T00:08:10;98059.69;;;3.32
80537;BMP280;69867;47.074;15.404;2024-02-15T00:10:35;98062.31;;;3.36
80537;BMP280;69867;47.074;15.404;2024-02-15T00:13:01;98064.13;;;3.43
80537;BMP280;69867;47.074;15.404;2024-02-15T00:15:26;98065.88;;;3.47
80537;BMP280;69867;47.074;15.404;2024-02-15T00:17:52;98064.19;;;3.49
80537;BMP280;69867;47.074;15.404;2024-02-15T00:20:17;98065.84;;;3.44
80537;BMP280;69867;47.074;15.404;2024-02-15T00:22:42;98068.41;;;3.43
80537;BMP280;69867;47.074;15.404;2024-02-15T00:25:08;98070.06;;;3.41
80537;BMP280;69867;47.074;15.404;2024-02-15T00:27:33;98064.88;;;3.35
80537;BMP280;69867;47.074;15.404;2024-02-15T00:29:58;98061.41;;;3.33
80537;BMP280;69867;47.074;15.404;2024-02-15T00:32:24;98069.09;;;3.31
80537;BMP280;69867;47.074;15.404;2024-02-15T00:34:49;98057.94;;;3.29
80537;BMP280;69867;47.074;15.404;2024-02-15T00:37:14;98054.44;;;3.22
80537;BMP280;69867;47.074;15.404;2024-02-15T00:39:40;98053.53;;;3.19
80537;BMP280;69867;47.074;15.404;2024-02-15T00:42:05;98062.00;;;3.13
80537;BMP280;69867;47.074;15.404;2024-02-15T00:44:31;98059.50;;;3.18
80537;BMP280;69867;47.074;15.404;2024-02-15T00:46:56;98064.88;;;3.35
80537;BMP280;69867;47.074;15.404;2024-02-15T00:49:21;98058.00;;;3.34
80537;BMP280;69867;47.074;15.404;2024-02-15T00:51:47;98054.63;;;3.38
80537;BMP280;69867;47.074;15.404;2024-02-15T00:54:12;98058.13;;;3.43
80537;BMP280;69867;47.074;15.404;2024-02-15T00:56:37;98076.28;;;3.57
80537;BMP280;69867;47.074;15.404;2024-02-15T00:59:03;98069.34;;;3.49
80537;BMP280;69867;47.074;15.404;2024-02-15T01:01:29;98064.19;;;3.49
80537;BMP280;69867;47.074;15.404;2024-02-15T01:03:54;98063.31;;;3.47
80537;BMP280;69867;47.074;15.404;2024-02-15T01:06:19;98066.72;;;3.46
80537;BMP280;69867;47.074;15.404;2024-02-15T01:08:45;98070.22;;;3.51
80537;BMP280;69867;47.074;15.404;2024-02-15T01:11:10;98065.03;;;3.48
80537;BMP280;69867;47.074;15.404;2024-02-15T01:13:36;98064.19;;;3.49
80537;BMP280;69867;47.074;15.404;2024-02-15T01:16:01;98065.09;;;3.53
80537;BMP280;69867;47.074;15.404;2024-02-15T01:18:26;98065.09;;;3.53
80537;BMP280;69867;47.074;15.404;2024-02-15T01:20:52;98065.09;;;3.53
80537;BMP280;69867;47.074;15.404;2024-02-15T01:23:17;98062.53;;;3.53
80537;BMP280;69867;47.074;15.404;2024-02-15T01:25:42;98060.75;;;3.47
80537;BMP280;69867;47.074;15.404;2024-02-15T01:28:08;98067.53;;;3.42
80537;BMP280;69867;47.074;15.404;2024-02-15T01:30:33;98068.34;;;3.38
80537;BMP280;69867;47.074;15.404;2024-02-15T01:32:59;98065.66;;;3.31
80537;BMP280;69867;47.074;15.404;2024-02-15T01:35:25;98057.91;;;3.28
80537;BMP280;69867;47.074;15.404;2024-02-15T01:37:51;98062.13;;;3.21
80537;BMP280;69867;47.074;15.404;2024-02-15T01:40:16;98061.25;;;3.20
80537;BMP280;69867;47.074;15.404;2024-02-15T01:42:41;98062.13;;;3.21
80537;BMP280;69867;47.074;15.404;2024-02-15T01:45:07;98059.59;;;3.26
80537;BMP280;69867;47.074;15.404;2024-02-15T01:47:33;98058.75;;;3.25
80537;BMP280;69867;47.074;15.404;2024-02-15T01:49:58;98056.22;;;3.28
80537;BMP280;69867;47.074;15.404;2024-02-15T01:52:24;98049.38;;;3.29
80537;BMP280;69867;47.074;15.404;2024-02-15T01:54:53;98046.81;;;3.30
80537;BMP280;69867;47.074;15.404;2024-02-15T01:57:19;98049.44;;;3.35
80537;BMP280;69867;47.074;15.404;2024-02-15T01:59:45;98041.72;;;3.32
80537;BMP280;69867;47.074;15.404;2024-02-15T02:02:12;98039.22;;;3.38
80537;BMP280;69867;47.074;15.404;2024-02-15T02:04:40;98030.66;;;3.37
80537;BMP280;69867;47.074;15.404;2024-02-15T02:07:06;98033.19;;;3.36
80537;BMP280;69867;47.074;15.404;2024-02-15T02:09:31;98033.22;;;3.39
80537;BMP280;69867;47.074;15.404;2024-02-15T02:11:57;98034.06;;;3.36
80537;BMP280;69867;47.074;15.404;2024-02-15T02:14:22;98036.59;;;3.33
80537;BMP280;69867;47.074;15.404;2024-02-15T02:16:47;98031.50;;;3.36
80537;BMP280;69867;47.074;15.404;2024-02-15T02:19:13;98027.19;;;3.35
80537;BMP280;69867;47.074;15.404;2024-02-15T02:21:39;98022.88;;;3.31
80537;BMP280;69867;47.074;15.404;2024-02-15T02:24:13;98033.94;;;3.27
80537;BMP280;69867;47.074;15.404;2024-02-15T02:26:39;98038.25;;;3.28
80537;BMP280;69867;47.074;15.404;2024-02-15T02:29:05;98038.28;;;3.31
80537;BMP280;69867;47.074;15.404;2024-02-15T02:31:34;98031.50;;;3.36
80537;BMP280;69867;47.074;15.404;2024-02-15T02:33:59;98028.94;;;3.38
80537;BMP280;69867;47.074;15.404;2024-02-15T02:36:25;98033.25;;;3.40
80537;BMP280;69867;47.074;15.404;2024-02-15T02:38:50;98032.38;;;3.38
80537;BMP280;69867;47.074;15.404;2024-02-15T02:41:16;98031.53;;;3.41
80537;BMP280;69867;47.074;15.404;2024-02-15T02:43:41;98036.69;;;3.42
80537;BMP280;69867;47.074;15.404;2024-02-15T02:46:10;98031.59;;;3.45
80537;BMP280;69867;47.074;15.404;2024-02-15T02:48:35;98035.13;;;3.53
80537;BMP280;69867;47.074;15.404;2024-02-15T02:51:00;98027.47;;;3.58
80537;BMP280;69867;47.074;15.404;2024-02-15T02:53:26;98019.78;;;3.60
80537;BMP280;69867;47.074;15.404;2024-02-15T02:55:51;98020.59;;;3.57
80537;BMP280;69867;47.074;15.404;2024-02-15T02:58:17;98018.09;;;3.62
80537;BMP280;69867;47.074;15.404;2024-02-15T03:00:42;98021.50;;;3.61
80537;BMP280;69867;47.074;15.404;2024-02-15T03:03:08;98010.31;;;3.57
80537;BMP280;69867;47.074;15.404;2024-02-15T03:05:33;98017.19;;;3.58
80537;BMP280;69867;47.074;15.404;2024-02-15T03:07:58;98023.16;;;3.56
80537;BMP280;69867;47.074;15.404;2024-02-15T03:10:24;98028.28;;;3.54
80537;BMP280;69867;47.074;15.404;2024-02-15T03:12:49;98025.69;;;3.54
80537;BMP280;69867;47.074;15.404;2024-02-15T03:15:15;98024.84;;;3.53
80537;BMP280;69867;47.074;15.404;2024-02-15T03:17:43;98022.31;;;3.57
80537;BMP280;69867;47.074;15.404;2024-02-15T03:20:10;98020.59;;;3.56
80537;BMP280;69867;47.074;15.404;2024-02-15T03:22:35;98025.75;;;3.59
80537;BMP280;69867;47.074;15.404;2024-02-15T03:25:01;98012.91;;;3.57
80537;BMP280;69867;47.074;15.404;2024-02-15T03:27:26;98028.31;;;3.59
80537;BMP280;69867;47.074;15.404;2024-02-15T03:29:51;98020.56;;;3.54
80537;BMP280;69867;47.074;15.404;2024-02-15T03:32:17;98016.25;;;3.51
80537;BMP280;69867;47.074;15.404;2024-02-15T03:34:42;98019.81;;;3.63
80537;BMP280;69867;47.074;15.404;2024-02-15T03:37:08;98007.88;;;3.68
80537;BMP280;69867;47.074;15.404;2024-02-15T03:39:33;98012.25;;;3.76
80537;BMP280;69867;47.074;15.404;2024-02-15T03:41:58;98014.88;;;3.84
80537;BMP280;69867;47.074;15.404;2024-02-15T03:44:24;98002.13;;;3.90
80537;BMP280;69867;47.074;15.404;2024-02-15T03:46:49;97996.22;;;4.00
80537;BMP280;69867;47.074;15.404;2024-02-15T03:49:14;97998.81;;;4.03
80537;BMP280;69867;47.074;15.404;2024-02-15T03:51:40;97992.88;;;4.09
80537;BMP280;69867;47.074;15.404;2024-02-15T03:54:05;97998.91;;;4.12
80537;BMP280;69867;47.074;15.404;2024-02-15T03:56:30;98002.31;;;4.11
80537;BMP280;69867;47.074;15.404;2024-02-15T03:58:56;98004.91;;;4.14
80537;BMP280;69867;47.074;15.404;2024-02-15T04:01:21;98006.66;;;4.15
80537;BMP280;69867;47.074;15.404;2024-02-15T04:03:46;98008.34;;;4.13
80537;BMP280;69867;47.074;15.404;2024-02-15T04:06:12;98004.88;;;4.10
80537;BMP280;69867;47.074;15.404;2024-02-15T04:08:37;98003.13;;;4.04
80537;BMP280;69867;47.074;15.404;2024-02-15T04:11:03;98007.44;;;4.08
80537;BMP280;69867;47.074;15.404;2024-02-15T04:13:28;98000.59;;;4.10
80537;BMP280;69867;47.074;15.404;2024-02-15T04:15:53;98010.94;;;4.15
80537;BMP280;69867;47.074;15.404;2024-02-15T04:18:19;98007.50;;;4.16
80537;BMP280;69867;47.074;15.404;2024-02-15T04:20:44;98001.53;;;4.20
80537;BMP280;69867;47.074;15.404;2024-02-15T04:23:11;98001.56;;;4.25
80537;BMP280;69867;47.074;15.404;2024-02-15T04:25:36;97999.88;;;4.28
80537;BMP280;69867;47.074;15.404;2024-02-15T04:28:01;98003.38;;;4.36
80537;BMP280;69867;47.074;15.404;2024-02-15T04:30:27;98008.59;;;4.44
80537;BMP280;69867;47.074;15.404;2024-02-15T04:32:52;98005.97;;;4.38
80537;BMP280;69867;47.074;15.404;2024-02-15T04:35:18;98006.88;;;4.43
80537;BMP280;69867;47.074;15.404;2024-02-15T04:37:43;98011.19;;;4.45
80537;BMP280;69867;47.074;15.404;2024-02-15T04:40:09;98011.16;;;4.44
80537;BMP280;69867;47.074;15.404;2024-02-15T04:42:34;98006.81;;;4.38
80537;BMP280;69867;47.074;15.404;2024-02-15T04:45:00;98005.97;;;4.36
80537;BMP280;69867;47.074;15.404;2024-02-15T04:47:26;98011.03;;;4.29
80537;BMP280;69867;47.074;15.404;2024-02-15T04:49:51;98010.16;;;4.27
80537;BMP280;69867;47.074;15.404;2024-02-15T04:52:16;98019.63;;;4.29
80537;BMP280;69867;47.074;15.404;2024-02-15T04:54:42;98011.88;;;4.25
80537;BMP280;69867;47.074;15.404;2024-02-15T04:57:07;98016.19;;;4.30
80537;BMP280;69867;47.074;15.404;2024-02-15T04:59:32;98021.34;;;4.32
80537;BMP280;69867;47.074;15.404;2024-02-15T05:01:58;98020.44;;;4.24
80537;BMP280;69867;47.074;15.404;2024-02-15T05:04:23;98021.34;;;4.29
80537;BMP280;69867;47.074;15.404;2024-02-15T05:06:49;98017.94;;;4.31
80537;BMP280;69867;47.074;15.404;2024-02-15T05:09:14;98020.50;;;4.33
80537;BMP280;69867;47.074;15.404;2024-02-15T05:11:40;98024.81;;;4.35
80537;BMP280;69867;47.074;15.404;2024-02-15T05:14:05;98017.97;;;4.37
80537;BMP280;69867;47.074;15.404;2024-02-15T05:16:31;98016.28;;;4.41
80537;BMP280;69867;47.074;15.404;2024-02-15T05:18:57;98011.09;;;4.35
80537;BMP280;69867;47.074;15.404;2024-02-15T05:21:22;98023.09;;;4.36
80537;BMP280;69867;47.074;15.404;2024-02-15T05:23:48;98023.09;;;4.34
80537;BMP280;69867;47.074;15.404;2024-02-15T05:26:13;98018.81;;;4.36
80537;BMP280;69867;47.074;15.404;2024-02-15T05:28:39;98014.56;;;4.38
80537;BMP280;69867;47.074;15.404;2024-02-15T05:31:18;98011.13;;;4.39
80537;BMP280;69867;47.074;15.404;2024-02-15T05:33:44;98016.28;;;4.39
80537;BMP280;69867;47.074;15.404;2024-02-15T05:36:11;98011.97;;;4.37
80537;BMP280;69867;47.074;15.404;2024-02-15T05:38:36;98012.00;;;4.40
80537;BMP280;69867;47.074;15.404;2024-02-15T05:41:02;98012.88;;;4.43
80537;BMP280;69867;47.074;15.404;2024-02-15T05:43:27;98003.44;;;4.45
80537;BMP280;69867;47.074;15.404;2024-02-15T05:45:53;98001.75;;;4.49
80537;BMP280;69867;47.074;15.404;2024-02-15T05:48:18;98008.63;;;4.50
80537;BMP280;69867;47.074;15.404;2024-02-15T05:50:43;98008.69;;;4.56
80537;BMP280;69867;47.074;15.404;2024-02-15T05:53:09;98011.22;;;4.52
80537;BMP280;69867;47.074;15.404;2024-02-15T05:55:34;98010.41;;;4.56
80537;BMP280;69867;47.074;15.404;2024-02-15T05:58:00;98012.97;;;4.59
80537;BMP280;69867;47.074;15.404;2024-02-15T06:00:25;98025.88;;;4.62
80537;BMP280;69867;47.074;15.404;2024-02-15T06:02:50;98021.63;;;4.65
80537;BMP280;69867;47.074;15.404;2024-02-15T06:05:16;98012.22;;;4.70
80537;BMP280;69867;47.074;15.404;2024-02-15T06:07:41;98024.28;;;4.77
80537;BMP280;69867;47.074;15.404;2024-02-15T06:10:07;98014.00;;;4.80
80537;BMP280;69867;47.074;15.404;2024-02-15T06:12:32;98021.72;;;4.82
80537;BMP280;69867;47.074;15.404;2024-02-15T06:14:58;98022.59;;;4.86
80537;BMP280;69867;47.074;15.404;2024-02-15T06:17:23;98032.88;;;4.81
80537;BMP280;69867;47.074;15.404;2024-02-15T06:19:48;98032.88;;;4.81
80537;BMP280;69867;47.074;15.404;2024-02-15T06:22:14;98032.06;;;4.90
80537;BMP280;69867;47.074;15.404;2024-02-15T06:24:40;98026.09;;;4.94
80537;BMP280;69867;47.074;15.404;2024-02-15T06:27:05;98030.41;;;4.98
80537;BMP280;69867;47.074;15.404;2024-02-15T06:29:30;98032.13;;;5.00
80537;BMP280;69867;47.074;15.404;2024-02-15T06:31:56;98035.59;;;5.04
80537;BMP280;69867;47.074;15.404;2024-02-15T06:34:21;98039.06;;;5.12
80537;BMP280;69867;47.074;15.404;2024-02-15T06:36:48;98035.66;;;5.18
80537;BMP280;69867;47.074;15.404;2024-02-15T06:39:13;98035.66;;;5.16
80537;BMP280;69867;47.074;15.404;2024-02-15T06:41:39;98034.00;;;5.26
80537;BMP280;69867;47.074;15.404;2024-02-15T06:44:04;98046.94;;;5.35
80537;BMP280;69867;47.074;15.404;2024-02-15T06:46:30;98034.94;;;5.41
80537;BMP280;69867;47.074;15.404;2024-02-15T06:48:55;98039.25;;;5.47
80537;BMP280;69867;47.074;15.404;2024-02-15T06:51:20;98045.28;;;5.47
80537;BMP280;69867;47.074;15.404;2024-02-15T06:53:46;98052.19;;;5.58
80537;BMP280;69867;47.074;15.404;2024-02-15T06:56:11;98047.94;;;5.66
80537;BMP280;69867;47.074;15.404;2024-02-15T06:58:36;98052.25;;;5.70
80537;BMP280;69867;47.074;15.404;2024-02-15T07:01:02;98054.84;;;5.77
80537;BMP280;69867;47.074;15.404;2024-02-15T07:03:30;98052.28;;;5.85
80537;BMP280;69867;47.074;15.404;2024-02-15T07:05:56;98043.75;;;5.95
80537;BMP280;69867;47.074;15.404;2024-02-15T07:08:21;98044.63;;;6.03
80537;BMP280;69867;47.074;15.404;2024-02-15T07:10:47;98045.47;;;6.02
80537;BMP280;69867;47.074;15.404;2024-02-15T07:13:12;98051.50;;;6.07
80537;BMP280;69867;47.074;15.404;2024-02-15T07:15:37;98050.66;;;6.12
80537;BMP280;69867;47.074;15.404;2024-02-15T07:18:06;98050.66;;;6.19
80537;BMP280;69867;47.074;15.404;2024-02-15T07:20:33;98058.44;;;6.36
80537;BMP280;69867;47.074;15.404;2024-02-15T07:22:58;98052.41;;;6.41
80537;BMP280;69867;47.074;15.404;2024-02-15T07:25:23;98053.31;;;6.66
80537;BMP280;69867;47.074;15.404;2024-02-15T07:27:49;98050.72;;;6.86
80537;BMP280;69867;47.074;15.404;2024-02-15T07:30:14;98050.69;;;7.00
80537;BMP280;69867;47.074;15.404;2024-02-15T07:32:40;98052.44;;;6.89
80537;BMP280;69867;47.074;15.404;2024-02-15T07:35:05;98055.00;;;6.90
80537;BMP280;69867;47.074;15.404;2024-02-15T07:37:31;98052.41;;;7.05
80537;BMP280;69867;47.074;15.404;2024-02-15T07:39:56;98046.38;;;7.06
80537;BMP280;69867;47.074;15.404;2024-02-15T07:42:21;98047.22;;;7.15
80537;BMP280;69867;47.074;15.404;2024-02-15T07:44:47;98040.31;;;7.18
80537;BMP280;69867;47.074;15.404;2024-02-15T07:47:12;98043.75;;;7.25
80537;BMP280;69867;47.074;15.404;2024-02-15T07:49:38;98037.69;;;7.27
80537;BMP280;69867;47.074;15.404;2024-02-15T07:52:03;98028.13;;;7.49
80537;BMP280;69867;47.074;15.404;2024-02-15T07:54:28;98024.59;;;7.71
80537;BMP280;69867;47.074;15.404;2024-02-15T07:56:54;98013.31;;;7.91
80537;BMP280;69867;47.074;15.404;2024-02-15T07:59:19;98014.19;;;7.88
80537;BMP280;69867;47.074;15.404;2024-02-15T08:01:45;98020.13;;;8.04
80537;BMP280;69867;47.074;15.404;2024-02-15T08:04:10;98007.94;;;8.18
80537;BMP280;69867;47.074;15.404;2024-02-15T08:06:35;98010.44;;;8.29
80537;BMP280;69867;47.074;15.404;2024-02-15T08:09:01;98018.28;;;8.21
80537;BMP280;69867;47.074;15.404;2024-02-15T08:11:26;98020.81;;;8.29
80537;BMP280;69867;47.074;15.404;2024-02-15T08:13:52;98019.88;;;8.41
80537;BMP280;69867;47.074;15.404;2024-02-15T08:16:22;98026.69;;;8.52
80537;BMP280;69867;47.074;15.404;2024-02-15T08:18:47;98017.13;;;8.60
80537;BMP280;69867;47.074;15.404;2024-02-15T08:21:13;98009.28;;;8.71
80537;BMP280;69867;47.074;15.404;2024-02-15T08:23:40;98005.81;;;8.72
80537;BMP280;69867;47.074;15.404;2024-02-15T08:26:06;98006.66;;;8.73
80537;BMP280;69867;47.074;15.404;2024-02-15T08:28:31;98003.25;;;8.68
80537;BMP280;69867;47.074;15.404;2024-02-15T08:30:57;98005.81;;;8.72
80537;BMP280;69867;47.074;15.404;2024-02-15T08:33:24;98010.00;;;8.84
80537;BMP280;69867;47.074;15.404;2024-02-15T08:35:50;98011.66;;;8.91
80537;BMP280;69867;47.074;15.404;2024-02-15T08:38:15;98012.47;;;8.97
80537;BMP280;69867;47.074;15.404;2024-02-15T08:40:40;98013.25;;;9.04
80537;BMP280;69867;47.074;15.404;2024-02-15T08:43:06;98010.63;;;9.12
80537;BMP280;69867;47.074;15.404;2024-02-15T08:45:31;98003.59;;;9.21
80537;BMP280;69867;47.074;15.404;2024-02-15T08:47:56;98006.06;;;9.34
80537;BMP280;69867;47.074;15.404;2024-02-15T08:50:22;98005.00;;;9.50
80537;BMP280;69867;47.074;15.404;2024-02-15T08:52:47;98004.81;;;9.63
80537;BMP280;69867;47.074;15.404;2024-02-15T08:55:13;98002.00;;;9.80
80537;BMP280;69867;47.074;15.404;2024-02-15T08:57:38;98000.09;;;9.91
80537;BMP280;69867;47.074;15.404;2024-02-15T09:00:04;98000.78;;;10.06
80537;BMP280;69867;47.074;15.404;2024-02-15T09:02:30;98007.47;;;10.22
80537;BMP280;69867;47.074;15.404;2024-02-15T09:04:55;97999.59;;;10.28
80537;BMP280;69867;47.074;15.404;2024-02-15T09:07:21;97997.78;;;10.33
80537;BMP280;69867;47.074;15.404;2024-02-15T09:09:46;98003.81;;;10.35
80537;BMP280;69867;47.074;15.404;2024-02-15T09:12:11;97996.84;;;10.37
80537;BMP280;69867;47.074;15.404;2024-02-15T09:14:37;97991.53;;;10.46
80537;BMP280;69867;47.074;15.404;2024-02-15T09:17:02;97977.59;;;10.52
80537;BMP280;69867;47.074;15.404;2024-02-15T09:19:28;97987.06;;;10.56
80537;BMP280;69867;47.074;15.404;2024-02-15T09:21:53;97992.28;;;10.54
80537;BMP280;69867;47.074;15.404;2024-02-15T09:24:19;97990.25;;;10.72
80537;BMP280;69867;47.074;15.404;2024-02-15T09:26:44;97984.66;;;10.93
80537;BMP280;69867;47.074;15.404;2024-02-15T09:29:09;97979.97;;;11.12
80537;BMP280;69867;47.074;15.404;2024-02-15T09:31:35;97986.50;;;11.33
80537;BMP280;69867;47.074;15.404;2024-02-15T09:34:00;97980.94;;;11.49
80537;BMP280;69867;47.074;15.404;2024-02-15T09:36:26;97985.22;;;11.52
80537;BMP280;69867;47.074;15.404;2024-02-15T09:38:51;97977.19;;;11.63
80537;BMP280;69867;47.074;15.404;2024-02-15T09:41:17;97985.78;;;11.68
80537;BMP280;69867;47.074;15.404;2024-02-15T09:43:42;97986.53;;;11.74
80537;BMP280;69867;47.074;15.404;2024-02-15T09:46:08;97979.53;;;11.78
80537;BMP280;69867;47.074;15.404;2024-02-15T09:48:34;97984.63;;;11.84
80537;BMP280;69867;47.074;15.404;2024-02-15T09:50:59;97980.06;;;11.94
80537;BMP280;69867;47.074;15.404;2024-02-15T09:53:26;97978.00;;;12.08
80537;BMP280;69867;47.074;15.404;2024-02-15T09:55:53;97982.09;;;12.18
80537;BMP280;69867;47.074;15.404;2024-02-15T09:58:19;97975.19;;;12.17
80537;BMP280;69867;47.074;15.404;2024-02-15T10:00:44;97973.16;;;12.28
80537;BMP280;69867;47.074;15.404;2024-02-15T10:03:11;97961.66;;;12.37
80537;BMP280;69867;47.074;15.404;2024-02-15T10:05:38;97963.38;;;12.38
80537;BMP280;69867;47.074;15.404;2024-02-15T10:08:04;97965.84;;;12.44
80537;BMP280;69867;47.074;15.404;2024-02-15T10:10:29;97962.25;;;12.48
80537;BMP280;69867;47.074;15.404;2024-02-15T10:12:55;97961.22;;;12.55
80537;BMP280;69867;47.074;15.404;2024-02-15T10:15:36;97949.63;;;12.67
80537;BMP280;69867;47.074;15.404;2024-02-15T10:18:07;97951.91;;;12.79
80537;BMP280;69867;47.074;15.404;2024-02-15T10:20:32;97943.84;;;12.88
80537;BMP280;69867;47.074;15.404;2024-02-15T10:25:26;97939.94;;;13.04
80537;BMP280;69867;47.074;15.404;2024-02-15T10:28:01;97937.97;;;13.12
80537;BMP280;69867;47.074;15.404;2024-02-15T10:30:27;97939.56;;;13.20
80537;BMP280;69867;47.074;15.404;2024-02-15T10:32:52;97935.81;;;12.96
80537;BMP280;69867;47.074;15.404;2024-02-15T10:35:24;97937.81;;;12.86
80537;BMP280;69867;47.074;15.404;2024-02-15T10:37:49;97935.09;;;12.89
80537;BMP280;69867;47.074;15.404;2024-02-15T10:40:17;97940.88;;;13.02
80537;BMP280;69867;47.074;15.404;2024-02-15T10:42:43;97928.47;;;13.10
80537;BMP280;69867;47.074;15.404;2024-02-15T10:45:09;97938.56;;;13.24
80537;BMP280;69867;47.074;15.404;2024-02-15T10:47:37;97933.97;;;13.32
80537;BMP280;69867;47.074;15.404;2024-02-15T10:50:03;97927.91;;;13.31
80537;BMP280;69867;47.074;15.404;2024-02-15T10:52:31;97923.72;;;13.26
80537;BMP280;69867;47.074;15.404;2024-02-15T10:55:03;97928.41;;;13.13
80537;BMP280;69867;47.074;15.404;2024-02-15T10:57:31;97919.16;;;13.01
80537;BMP280;69867;47.074;15.404;2024-02-15T10:59:58;97920.88;;;13.02
80537;BMP280;69867;47.074;15.404;2024-02-15T11:02:28;97920.78;;;13.05
80537;BMP280;69867;47.074;15.404;2024-02-15T11:04:54;97925.78;;;13.13
80537;BMP280;69867;47.074;15.404;2024-02-15T11:07:20;97912.66;;;13.16
80537;BMP280;69867;47.074;15.404;2024-02-15T11:09:46;97910.03;;;13.18
80537;BMP280;69867;47.074;15.404;2024-02-15T11:12:11;97905.53;;;13.23
80537;BMP280;69867;47.074;15.404;2024-02-15T11:14:37;97896.72;;;13.27
80537;BMP280;69867;47.074;15.404;2024-02-15T11:17:02;97896.63;;;13.30
80537;BMP280;69867;47.074;15.404;2024-02-15T11:19:48;97894.41;;;13.45
80537;BMP280;69867;47.074;15.404;2024-02-15T11:22:15;97890.50;;;13.60
80537;BMP280;69867;47.074;15.404;2024-02-15T11:24:58;97891.97;;;13.69
80537;BMP280;69867;47.074;15.404;2024-02-15T11:27:30;97892.16;;;13.63
80537;BMP280;69867;47.074;15.404;2024-02-15T11:29:57;97883.75;;;13.53
80537;BMP280;69867;47.074;15.404;2024-02-15T11:32:45;97888.06;;;13.54
80537;BMP280;69867;47.074;15.404;2024-02-15T11:35:26;97872.81;;;13.68
80537;BMP280;69867;47.074;15.404;2024-02-15T11:37:52;97881.03;;;13.84
80537;BMP280;69867;47.074;15.404;2024-02-15T11:42:43;97882.94;;;13.79
80537;BMP280;69867;47.074;15.404;2024-02-15T11:45:09;97869.63;;;13.87
80537;BMP280;69867;47.074;15.404;2024-02-15T11:47:39;97866.63;;;13.99
80537;BMP280;69867;47.074;15.404;2024-02-15T11:50:09;97866.81;;;13.93
80537;BMP280;69867;47.074;15.404;2024-02-15T11:52:35;97877.78;;;14.04
80537;BMP280;69867;47.074;15.404;2024-02-15T11:55:07;97873.00;;;14.17
80537;BMP280;69867;47.074;15.404;2024-02-15T11:57:33;97871.69;;;14.31
80537;BMP280;69867;47.074;15.404;2024-02-15T11:59:58;97873.97;;;14.42
80537;BMP280;69867;47.074;15.404;2024-02-15T12:02:24;97871.38;;;14.40
80537;BMP280;69867;47.074;15.404;2024-02-15T12:04:49;97864.31;;;14.44
80537;BMP280;69867;47.074;15.404;2024-02-15T12:07:15;97858.72;;;14.27
80537;BMP280;69867;47.074;15.404;2024-02-15T12:09:40;97854.66;;;14.18
80537;BMP280;69867;47.074;15.404;2024-02-15T12:12:06;97851.44;;;14.10
80537;BMP280;69867;47.074;15.404;2024-02-15T12:14:31;97858.69;;;14.02
80537;BMP280;69867;47.074;15.404;2024-02-15T12:19:28;97861.09;;;14.08
80537;BMP280;69867;47.074;15.404;2024-02-15T12:21:55;97856.03;;;14.03
80537;BMP280;69867;47.074;15.404;2024-02-15T12:24:22;97856.78;;;14.07
80537;BMP280;69867;47.074;15.404;2024-02-15T12:26:48;97855.19;;;14.03
80537;BMP280;69867;47.074;15.404;2024-02-15T12:29:17;97852.50;;;14.04
80537;BMP280;69867;47.074;15.404;2024-02-15T12:31:43;97855.97;;;14.05
80537;BMP280;69867;47.074;15.404;2024-02-15T12:34:08;97851.84;;;13.98
80537;BMP280;69867;47.074;15.404;2024-02-15T12:36:35;97852.72;;;13.98
80537;BMP280;69867;47.074;15.404;2024-02-15T12:39:02;97840.00;;;13.88
80537;BMP280;69867;47.074;15.404;2024-02-15T12:41:27;97841.84;;;13.84
80537;BMP280;69867;47.074;15.404;2024-02-15T12:43:53;97834.03;;;13.84
80537;BMP280;69867;47.074;15.404;2024-02-15T12:46:21;97833.91;;;13.87
80537;BMP280;69867;47.074;15.404;2024-02-15T12:48:47;97827.34;;;14.02
80537;BMP280;69867;47.074;15.404;2024-02-15T12:51:16;97831.44;;;14.09
80537;BMP280;69867;47.074;15.404;2024-02-15T12:53:42;97824.41;;;14.11
80537;BMP280;69867;47.074;15.404;2024-02-15T12:56:07;97825.03;;;13.93
80537;BMP280;69867;47.074;15.404;2024-02-15T12:58:33;97828.69;;;13.87
80537;BMP280;69867;47.074;15.404;2024-02-15T13:00:58;97818.09;;;13.92
80537;BMP280;69867;47.074;15.404;2024-02-15T13:03:23;97813.31;;;13.78
80537;BMP280;69867;47.074;15.404;2024-02-15T13:05:49;97811.59;;;13.77
80537;BMP280;69867;47.074;15.404;2024-02-15T13:08:14;97810.72;;;13.78
80537;BMP280;69867;47.074;15.404;2024-02-15T13:10:40;97807.94;;;13.83
80537;BMP280;69867;47.074;15.404;2024-02-15T13:13:05;97805.22;;;13.86
80537;BMP280;69867;47.074;15.404;2024-02-15T13:15:31;97808.94;;;13.78
80537;BMP280;69867;47.074;15.404;2024-02-15T13:17:56;97798.59;;;13.75
80537;BMP280;69867;47.074;15.404;2024-02-15T13:20:26;97792.38;;;13.80
80537;BMP280;69867;47.074;15.404;2024-02-15T13:22:51;97798.56;;;13.77
80537;BMP280;69867;47.074;15.404;2024-02-15T13:25:16;97797.91;;;13.70
80537;BMP280;69867;47.074;15.404;2024-02-15T13:27:42;97804.03;;;13.69
80537;BMP280;69867;47.074;15.404;2024-02-15T13:30:08;97791.78;;;13.71
80537;BMP280;69867;47.074;15.404;2024-02-15T13:32:35;97791.63;;;13.76
80537;BMP280;69867;47.074;15.404;2024-02-15T13:35:01;97795.09;;;13.76
80537;BMP280;69867;47.074;15.404;2024-02-15T13:37:27;97789.06;;;13.74
80537;BMP280;69867;47.074;15.404;2024-02-15T13:39:52;97787.25;;;13.76
80537;BMP280;69867;47.074;15.404;2024-02-15T13:42:17;97783.63;;;13.81
80537;BMP280;69867;47.074;15.404;2024-02-15T13:44:44;97788.16;;;13.75
80537;BMP280;69867;47.074;15.404;2024-02-15T13:47:10;97780.31;;;13.75
80537;BMP280;69867;47.074;15.404;2024-02-15T13:49:35;97783.78;;;13.76
80537;BMP280;69867;47.074;15.404;2024-02-15T13:52:00;97782.31;;;13.67
80537;BMP280;69867;47.074;15.404;2024-02-15T13:54:26;97778.22;;;13.60
80537;BMP280;69867;47.074;15.404;2024-02-15T13:56:51;97778.09;;;13.63
80537;BMP280;69867;47.074;15.404;2024-02-15T13:59:17;97778.97;;;13.64
80537;BMP280;69867;47.074;15.404;2024-02-15T14:01:42;97782.78;;;13.54
80537;BMP280;69867;47.074;15.404;2024-02-15T14:04:07;97775.94;;;13.50